<?xml version="1.0" encoding="UTF-8" standalone="no" ?>
<gpx xmlns="http://www.topografix.com/GPX/1/1" xmlns:xsi="http://www.w3.org/2001/XMLSchema-instance" xsi:schemaLocation="http://www.topografix.com/GPX/1/1 http://www.topografix.com/GPX/1/1/gpx.xsd" version="1.1" creator="VisuGPX - https://www.visugpx.com">
  <metadata>
    <name>Excursion Fontaine-Henry Thaon M1 Dynamique Relationnelle</name>
    <desc><![CDATA[Excursion Nocturne Fontaine-Henry Thaon M1 Dynamique Relationnelle]]></desc>
  </metadata>
  <trk>
    <name><![CDATA[2010-12-06 16:00:00 +0000]]></name>
    <cmt><![CDATA[2010-12-06 16:00:00 +0000]]></cmt>
    <trkseg>
      <trkpt lat="49.2751" lon="-0.45207">
        <ele>19</ele>
        <time>2010-12-06T16:00:01Z</time>
      </trkpt>
      <trkpt lat="49.27506" lon="-0.45221">
        <ele>19</ele>
        <time>2010-12-06T16:00:14Z</time>
      </trkpt>
      <trkpt lat="49.27513" lon="-0.45223">
        <ele>20</ele>
        <time>2010-12-06T16:00:56Z</time>
      </trkpt>
      <trkpt lat="49.27513" lon="-0.4522">
        <ele>21</ele>
        <time>2010-12-06T16:01:52Z</time>
      </trkpt>
      <trkpt lat="49.27513" lon="-0.45215">
        <ele>23</ele>
        <time>2010-12-06T16:03:11Z</time>
      </trkpt>
      <trkpt lat="49.27514" lon="-0.45221">
        <ele>23</ele>
        <time>2010-12-06T16:04:19Z</time>
      </trkpt>
      <trkpt lat="49.2751" lon="-0.45221">
        <ele>23</ele>
        <time>2010-12-06T16:04:39Z</time>
      </trkpt>
      <trkpt lat="49.27511" lon="-0.45223">
        <ele>22</ele>
        <time>2010-12-06T16:05:07Z</time>
      </trkpt>
      <trkpt lat="49.2752" lon="-0.45218">
        <ele>22</ele>
        <time>2010-12-06T16:05:13Z</time>
      </trkpt>
      <trkpt lat="49.27516" lon="-0.45213">
        <ele>22</ele>
        <time>2010-12-06T16:05:27Z</time>
      </trkpt>
      <trkpt lat="49.27513" lon="-0.45216">
        <ele>22</ele>
        <time>2010-12-06T16:05:42Z</time>
      </trkpt>
      <trkpt lat="49.27512" lon="-0.45222">
        <ele>24</ele>
        <time>2010-12-06T16:06:17Z</time>
      </trkpt>
      <trkpt lat="49.27511" lon="-0.45226">
        <ele>25</ele>
        <time>2010-12-06T16:09:10Z</time>
      </trkpt>
      <trkpt lat="49.2751" lon="-0.45214">
        <ele>25</ele>
        <time>2010-12-06T16:10:07Z</time>
      </trkpt>
      <trkpt lat="49.27506" lon="-0.45211">
        <ele>25</ele>
        <time>2010-12-06T16:10:12Z</time>
      </trkpt>
      <trkpt lat="49.27501" lon="-0.45209">
        <ele>26</ele>
        <time>2010-12-06T16:10:16Z</time>
      </trkpt>
      <trkpt lat="49.27496" lon="-0.45211">
        <ele>26</ele>
        <time>2010-12-06T16:10:21Z</time>
      </trkpt>
      <trkpt lat="49.27479" lon="-0.45237">
        <ele>26</ele>
        <time>2010-12-06T16:10:47Z</time>
      </trkpt>
      <trkpt lat="49.27469" lon="-0.4527">
        <ele>26</ele>
        <time>2010-12-06T16:11:21Z</time>
      </trkpt>
      <trkpt lat="49.27445" lon="-0.45304">
        <ele>25</ele>
        <time>2010-12-06T16:11:55Z</time>
      </trkpt>
      <trkpt lat="49.27424" lon="-0.45339">
        <ele>26</ele>
        <time>2010-12-06T16:12:26Z</time>
      </trkpt>
      <trkpt lat="49.27403" lon="-0.45375">
        <ele>26</ele>
        <time>2010-12-06T16:12:56Z</time>
      </trkpt>
      <trkpt lat="49.27388" lon="-0.45405">
        <ele>26</ele>
        <time>2010-12-06T16:13:26Z</time>
      </trkpt>
      <trkpt lat="49.27357" lon="-0.45451">
        <ele>27</ele>
        <time>2010-12-06T16:14:03Z</time>
      </trkpt>
      <trkpt lat="49.27325" lon="-0.45493">
        <ele>28</ele>
        <time>2010-12-06T16:14:35Z</time>
      </trkpt>
      <trkpt lat="49.27293" lon="-0.45524">
        <ele>28</ele>
        <time>2010-12-06T16:15:08Z</time>
      </trkpt>
      <trkpt lat="49.27256" lon="-0.45541">
        <ele>30</ele>
        <time>2010-12-06T16:15:40Z</time>
      </trkpt>
      <trkpt lat="49.27218" lon="-0.45541">
        <ele>30</ele>
        <time>2010-12-06T16:16:10Z</time>
      </trkpt>
      <trkpt lat="49.27178" lon="-0.45535">
        <ele>32</ele>
        <time>2010-12-06T16:16:43Z</time>
      </trkpt>
      <trkpt lat="49.2714" lon="-0.45522">
        <ele>33</ele>
        <time>2010-12-06T16:17:14Z</time>
      </trkpt>
      <trkpt lat="49.27103" lon="-0.45514">
        <ele>35</ele>
        <time>2010-12-06T16:17:46Z</time>
      </trkpt>
      <trkpt lat="49.27064" lon="-0.45502">
        <ele>36</ele>
        <time>2010-12-06T16:18:18Z</time>
      </trkpt>
      <trkpt lat="49.2703" lon="-0.45489">
        <ele>37</ele>
        <time>2010-12-06T16:18:51Z</time>
      </trkpt>
      <trkpt lat="49.2702" lon="-0.45487">
        <ele>37</ele>
        <time>2010-12-06T16:18:59Z</time>
      </trkpt>
      <trkpt lat="49.27012" lon="-0.45488">
        <ele>38</ele>
        <time>2010-12-06T16:19:14Z</time>
      </trkpt>
      <trkpt lat="49.26973" lon="-0.45479">
        <ele>39</ele>
        <time>2010-12-06T16:19:48Z</time>
      </trkpt>
      <trkpt lat="49.26933" lon="-0.45465">
        <ele>40</ele>
        <time>2010-12-06T16:20:23Z</time>
      </trkpt>
      <trkpt lat="49.26894" lon="-0.45454">
        <ele>39</ele>
        <time>2010-12-06T16:20:57Z</time>
      </trkpt>
      <trkpt lat="49.26865" lon="-0.4545">
        <ele>39</ele>
        <time>2010-12-06T16:21:32Z</time>
      </trkpt>
      <trkpt lat="49.26831" lon="-0.45438">
        <ele>40</ele>
        <time>2010-12-06T16:22:06Z</time>
      </trkpt>
      <trkpt lat="49.26798" lon="-0.45429">
        <ele>41</ele>
        <time>2010-12-06T16:22:37Z</time>
      </trkpt>
      <trkpt lat="49.26795" lon="-0.45429">
        <ele>41</ele>
        <time>2010-12-06T16:22:45Z</time>
      </trkpt>
      <trkpt lat="49.26762" lon="-0.45411">
        <ele>41</ele>
        <time>2010-12-06T16:23:17Z</time>
      </trkpt>
      <trkpt lat="49.26721" lon="-0.45403">
        <ele>40</ele>
        <time>2010-12-06T16:23:50Z</time>
      </trkpt>
      <trkpt lat="49.26681" lon="-0.45388">
        <ele>39</ele>
        <time>2010-12-06T16:24:22Z</time>
      </trkpt>
      <trkpt lat="49.2664" lon="-0.45381">
        <ele>39</ele>
        <time>2010-12-06T16:24:55Z</time>
      </trkpt>
      <trkpt lat="49.26599" lon="-0.45375">
        <ele>38</ele>
        <time>2010-12-06T16:25:28Z</time>
      </trkpt>
      <trkpt lat="49.26565" lon="-0.4537">
        <ele>37</ele>
        <time>2010-12-06T16:26:00Z</time>
      </trkpt>
      <trkpt lat="49.26525" lon="-0.45367">
        <ele>37</ele>
        <time>2010-12-06T16:26:31Z</time>
      </trkpt>
      <trkpt lat="49.26493" lon="-0.45361">
        <ele>37</ele>
        <time>2010-12-06T16:27:01Z</time>
      </trkpt>
      <trkpt lat="49.26457" lon="-0.45354">
        <ele>38</ele>
        <time>2010-12-06T16:27:32Z</time>
      </trkpt>
      <trkpt lat="49.26416" lon="-0.4535">
        <ele>37</ele>
        <time>2010-12-06T16:28:05Z</time>
      </trkpt>
      <trkpt lat="49.264" lon="-0.45348">
        <ele>37</ele>
        <time>2010-12-06T16:28:17Z</time>
      </trkpt>
      <trkpt lat="49.26394" lon="-0.45354">
        <ele>37</ele>
        <time>2010-12-06T16:28:31Z</time>
      </trkpt>
      <trkpt lat="49.26389" lon="-0.45355">
        <ele>36</ele>
        <time>2010-12-06T16:28:40Z</time>
      </trkpt>
      <trkpt lat="49.26382" lon="-0.45347">
        <ele>36</ele>
        <time>2010-12-06T16:28:59Z</time>
      </trkpt>
      <trkpt lat="49.26351" lon="-0.45352">
        <ele>36</ele>
        <time>2010-12-06T16:29:22Z</time>
      </trkpt>
      <trkpt lat="49.26317" lon="-0.45381">
        <ele>36</ele>
        <time>2010-12-06T16:29:54Z</time>
      </trkpt>
      <trkpt lat="49.26287" lon="-0.45423">
        <ele>36</ele>
        <time>2010-12-06T16:30:27Z</time>
      </trkpt>
      <trkpt lat="49.26259" lon="-0.4546">
        <ele>36</ele>
        <time>2010-12-06T16:31:00Z</time>
      </trkpt>
      <trkpt lat="49.26231" lon="-0.45499">
        <ele>38</ele>
        <time>2010-12-06T16:31:31Z</time>
      </trkpt>
      <trkpt lat="49.26201" lon="-0.45537">
        <ele>38</ele>
        <time>2010-12-06T16:32:02Z</time>
      </trkpt>
      <trkpt lat="49.26193" lon="-0.45546">
        <ele>38</ele>
        <time>2010-12-06T16:32:10Z</time>
      </trkpt>
      <trkpt lat="49.26191" lon="-0.45552">
        <ele>39</ele>
        <time>2010-12-06T16:32:19Z</time>
      </trkpt>
      <trkpt lat="49.26158" lon="-0.45588">
        <ele>39</ele>
        <time>2010-12-06T16:32:53Z</time>
      </trkpt>
      <trkpt lat="49.26155" lon="-0.45593">
        <ele>39</ele>
        <time>2010-12-06T16:33:03Z</time>
      </trkpt>
      <trkpt lat="49.26151" lon="-0.45596">
        <ele>39</ele>
        <time>2010-12-06T16:33:10Z</time>
      </trkpt>
      <trkpt lat="49.2612" lon="-0.45635">
        <ele>39</ele>
        <time>2010-12-06T16:33:44Z</time>
      </trkpt>
      <trkpt lat="49.26115" lon="-0.4564">
        <ele>39</ele>
        <time>2010-12-06T16:33:49Z</time>
      </trkpt>
      <trkpt lat="49.26111" lon="-0.45642">
        <ele>39</ele>
        <time>2010-12-06T16:34:05Z</time>
      </trkpt>
      <trkpt lat="49.26108" lon="-0.4565">
        <ele>39</ele>
        <time>2010-12-06T16:34:20Z</time>
      </trkpt>
      <trkpt lat="49.26098" lon="-0.45653">
        <ele>39</ele>
        <time>2010-12-06T16:34:33Z</time>
      </trkpt>
      <trkpt lat="49.26069" lon="-0.45679">
        <ele>39</ele>
        <time>2010-12-06T16:35:06Z</time>
      </trkpt>
      <trkpt lat="49.26031" lon="-0.45705">
        <ele>38</ele>
        <time>2010-12-06T16:35:44Z</time>
      </trkpt>
      <trkpt lat="49.26003" lon="-0.45732">
        <ele>40</ele>
        <time>2010-12-06T16:36:16Z</time>
      </trkpt>
      <trkpt lat="49.25981" lon="-0.45765">
        <ele>41</ele>
        <time>2010-12-06T16:36:49Z</time>
      </trkpt>
      <trkpt lat="49.25973" lon="-0.45775">
        <ele>40</ele>
        <time>2010-12-06T16:37:02Z</time>
      </trkpt>
      <trkpt lat="49.2594" lon="-0.45789">
        <ele>40</ele>
        <time>2010-12-06T16:37:32Z</time>
      </trkpt>
      <trkpt lat="49.25903" lon="-0.45792">
        <ele>40</ele>
        <time>2010-12-06T16:38:04Z</time>
      </trkpt>
      <trkpt lat="49.25894" lon="-0.45796">
        <ele>40</ele>
        <time>2010-12-06T16:38:13Z</time>
      </trkpt>
      <trkpt lat="49.25889" lon="-0.45794">
        <ele>39</ele>
        <time>2010-12-06T16:38:21Z</time>
      </trkpt>
      <trkpt lat="49.25849" lon="-0.45795">
        <ele>39</ele>
        <time>2010-12-06T16:38:56Z</time>
      </trkpt>
      <trkpt lat="49.25812" lon="-0.45805">
        <ele>37</ele>
        <time>2010-12-06T16:39:26Z</time>
      </trkpt>
      <trkpt lat="49.25808" lon="-0.458">
        <ele>37</ele>
        <time>2010-12-06T16:39:39Z</time>
      </trkpt>
      <trkpt lat="49.25806" lon="-0.45793">
        <ele>36</ele>
        <time>2010-12-06T16:39:45Z</time>
      </trkpt>
      <trkpt lat="49.25806" lon="-0.45756">
        <ele>34</ele>
        <time>2010-12-06T16:40:17Z</time>
      </trkpt>
      <trkpt lat="49.25806" lon="-0.4571">
        <ele>31</ele>
        <time>2010-12-06T16:40:55Z</time>
      </trkpt>
      <trkpt lat="49.25811" lon="-0.45672">
        <ele>27</ele>
        <time>2010-12-06T16:41:28Z</time>
      </trkpt>
      <trkpt lat="49.25821" lon="-0.45625">
        <ele>23</ele>
        <time>2010-12-06T16:42:02Z</time>
      </trkpt>
      <trkpt lat="49.25825" lon="-0.45572">
        <ele>19</ele>
        <time>2010-12-06T16:42:34Z</time>
      </trkpt>
      <trkpt lat="49.25831" lon="-0.45528">
        <ele>17</ele>
        <time>2010-12-06T16:43:09Z</time>
      </trkpt>
      <trkpt lat="49.25832" lon="-0.45479">
        <ele>16</ele>
        <time>2010-12-06T16:43:41Z</time>
      </trkpt>
      <trkpt lat="49.25831" lon="-0.45471">
        <ele>16</ele>
        <time>2010-12-06T16:43:47Z</time>
      </trkpt>
      <trkpt lat="49.25835" lon="-0.45465">
        <ele>16</ele>
        <time>2010-12-06T16:43:52Z</time>
      </trkpt>
      <trkpt lat="49.25834" lon="-0.45458">
        <ele>16</ele>
        <time>2010-12-06T16:43:56Z</time>
      </trkpt>
      <trkpt lat="49.25827" lon="-0.45401">
        <ele>15</ele>
        <time>2010-12-06T16:44:28Z</time>
      </trkpt>
      <trkpt lat="49.25827" lon="-0.45373">
        <ele>15</ele>
        <time>2010-12-06T16:44:47Z</time>
      </trkpt>
      <trkpt lat="49.25833" lon="-0.4536">
        <ele>15</ele>
        <time>2010-12-06T16:45:04Z</time>
      </trkpt>
      <trkpt lat="49.25834" lon="-0.45352">
        <ele>15</ele>
        <time>2010-12-06T16:45:13Z</time>
      </trkpt>
      <trkpt lat="49.25825" lon="-0.45294">
        <ele>16</ele>
        <time>2010-12-06T16:45:44Z</time>
      </trkpt>
      <trkpt lat="49.25825" lon="-0.45286">
        <ele>16</ele>
        <time>2010-12-06T16:45:48Z</time>
      </trkpt>
      <trkpt lat="49.25836" lon="-0.45265">
        <ele>17</ele>
        <time>2010-12-06T16:46:03Z</time>
      </trkpt>
      <trkpt lat="49.25843" lon="-0.45252">
        <ele>17</ele>
        <time>2010-12-06T16:46:14Z</time>
      </trkpt>
      <trkpt lat="49.25843" lon="-0.45218">
        <ele>18</ele>
        <time>2010-12-06T16:46:38Z</time>
      </trkpt>
      <trkpt lat="49.25848" lon="-0.45206">
        <ele>18</ele>
        <time>2010-12-06T16:46:47Z</time>
      </trkpt>
      <trkpt lat="49.25852" lon="-0.45202">
        <ele>18</ele>
        <time>2010-12-06T16:46:57Z</time>
      </trkpt>
      <trkpt lat="49.25852" lon="-0.45195">
        <ele>18</ele>
        <time>2010-12-06T16:47:03Z</time>
      </trkpt>
      <trkpt lat="49.25853" lon="-0.45175">
        <ele>19</ele>
        <time>2010-12-06T16:47:14Z</time>
      </trkpt>
      <trkpt lat="49.25857" lon="-0.45168">
        <ele>19</ele>
        <time>2010-12-06T16:47:18Z</time>
      </trkpt>
      <trkpt lat="49.25865" lon="-0.45161">
        <ele>19</ele>
        <time>2010-12-06T16:47:28Z</time>
      </trkpt>
      <trkpt lat="49.25869" lon="-0.45142">
        <ele>19</ele>
        <time>2010-12-06T16:47:41Z</time>
      </trkpt>
      <trkpt lat="49.2588" lon="-0.45116">
        <ele>18</ele>
        <time>2010-12-06T16:48:06Z</time>
      </trkpt>
      <trkpt lat="49.25879" lon="-0.45077">
        <ele>19</ele>
        <time>2010-12-06T16:48:29Z</time>
      </trkpt>
      <trkpt lat="49.25889" lon="-0.45062">
        <ele>19</ele>
        <time>2010-12-06T16:48:43Z</time>
      </trkpt>
      <trkpt lat="49.25913" lon="-0.45038">
        <ele>19</ele>
        <time>2010-12-06T16:49:15Z</time>
      </trkpt>
      <trkpt lat="49.25944" lon="-0.45015">
        <ele>18</ele>
        <time>2010-12-06T16:49:46Z</time>
      </trkpt>
      <trkpt lat="49.25969" lon="-0.44981">
        <ele>17</ele>
        <time>2010-12-06T16:50:19Z</time>
      </trkpt>
      <trkpt lat="49.25971" lon="-0.44974">
        <ele>17</ele>
        <time>2010-12-06T16:50:27Z</time>
      </trkpt>
      <trkpt lat="49.25971" lon="-0.44973">
        <ele>17</ele>
        <time>2010-12-06T16:51:19Z</time>
      </trkpt>
      <trkpt lat="49.25974" lon="-0.44984">
        <ele>20</ele>
        <time>2010-12-06T16:52:06Z</time>
      </trkpt>
      <trkpt lat="49.25989" lon="-0.45026">
        <ele>22</ele>
        <time>2010-12-06T16:52:38Z</time>
      </trkpt>
      <trkpt lat="49.26015" lon="-0.45062">
        <ele>23</ele>
        <time>2010-12-06T16:53:12Z</time>
      </trkpt>
      <trkpt lat="49.26024" lon="-0.45068">
        <ele>24</ele>
        <time>2010-12-06T16:53:22Z</time>
      </trkpt>
      <trkpt lat="49.26029" lon="-0.45068">
        <ele>24</ele>
        <time>2010-12-06T16:53:27Z</time>
      </trkpt>
      <trkpt lat="49.26063" lon="-0.45085">
        <ele>25</ele>
        <time>2010-12-06T16:54:00Z</time>
      </trkpt>
      <trkpt lat="49.26088" lon="-0.45065">
        <ele>25</ele>
        <time>2010-12-06T16:54:34Z</time>
      </trkpt>
      <trkpt lat="49.26118" lon="-0.45035">
        <ele>25</ele>
        <time>2010-12-06T16:55:05Z</time>
      </trkpt>
      <trkpt lat="49.26146" lon="-0.45009">
        <ele>27</ele>
        <time>2010-12-06T16:55:36Z</time>
      </trkpt>
      <trkpt lat="49.26169" lon="-0.44986">
        <ele>28</ele>
        <time>2010-12-06T16:56:08Z</time>
      </trkpt>
      <trkpt lat="49.26194" lon="-0.44965">
        <ele>29</ele>
        <time>2010-12-06T16:56:40Z</time>
      </trkpt>
      <trkpt lat="49.26218" lon="-0.44939">
        <ele>30</ele>
        <time>2010-12-06T16:57:10Z</time>
      </trkpt>
      <trkpt lat="49.26251" lon="-0.44906">
        <ele>30</ele>
        <time>2010-12-06T16:57:44Z</time>
      </trkpt>
      <trkpt lat="49.26281" lon="-0.44873">
        <ele>29</ele>
        <time>2010-12-06T16:58:28Z</time>
      </trkpt>
      <trkpt lat="49.26307" lon="-0.44859">
        <ele>28</ele>
        <time>2010-12-06T16:59:01Z</time>
      </trkpt>
      <trkpt lat="49.2633" lon="-0.44833">
        <ele>26</ele>
        <time>2010-12-06T16:59:32Z</time>
      </trkpt>
      <trkpt lat="49.26335" lon="-0.44828">
        <ele>26</ele>
        <time>2010-12-06T16:59:37Z</time>
      </trkpt>
      <trkpt lat="49.26342" lon="-0.44825">
        <ele>26</ele>
        <time>2010-12-06T16:59:44Z</time>
      </trkpt>
      <trkpt lat="49.26348" lon="-0.44828">
        <ele>26</ele>
        <time>2010-12-06T16:59:53Z</time>
      </trkpt>
      <trkpt lat="49.26359" lon="-0.4485">
        <ele>27</ele>
        <time>2010-12-06T17:00:10Z</time>
      </trkpt>
      <trkpt lat="49.26365" lon="-0.44885">
        <ele>25</ele>
        <time>2010-12-06T17:00:31Z</time>
      </trkpt>
      <trkpt lat="49.26385" lon="-0.44927">
        <ele>26</ele>
        <time>2010-12-06T17:00:57Z</time>
      </trkpt>
      <trkpt lat="49.26387" lon="-0.44941">
        <ele>26</ele>
        <time>2010-12-06T17:01:05Z</time>
      </trkpt>
      <trkpt lat="49.26402" lon="-0.44987">
        <ele>23</ele>
        <time>2010-12-06T17:01:37Z</time>
      </trkpt>
      <trkpt lat="49.26402" lon="-0.44996">
        <ele>23</ele>
        <time>2010-12-06T17:01:48Z</time>
      </trkpt>
      <trkpt lat="49.26405" lon="-0.4501">
        <ele>23</ele>
        <time>2010-12-06T17:01:55Z</time>
      </trkpt>
      <trkpt lat="49.26412" lon="-0.45017">
        <ele>22</ele>
        <time>2010-12-06T17:02:03Z</time>
      </trkpt>
      <trkpt lat="49.2641" lon="-0.4502">
        <ele>21</ele>
        <time>2010-12-06T17:02:22Z</time>
      </trkpt>
      <trkpt lat="49.26412" lon="-0.45021">
        <ele>21</ele>
        <time>2010-12-06T17:03:11Z</time>
      </trkpt>
      <trkpt lat="49.26417" lon="-0.45022">
        <ele>21</ele>
        <time>2010-12-06T17:03:15Z</time>
      </trkpt>
      <trkpt lat="49.26417" lon="-0.45026">
        <ele>20</ele>
        <time>2010-12-06T17:03:44Z</time>
      </trkpt>
      <trkpt lat="49.26408" lon="-0.4503">
        <ele>20</ele>
        <time>2010-12-06T17:03:56Z</time>
      </trkpt>
      <trkpt lat="49.26411" lon="-0.45036">
        <ele>20</ele>
        <time>2010-12-06T17:04:17Z</time>
      </trkpt>
      <trkpt lat="49.26415" lon="-0.45032">
        <ele>20</ele>
        <time>2010-12-06T17:04:26Z</time>
      </trkpt>
      <trkpt lat="49.2642" lon="-0.45032">
        <ele>19</ele>
        <time>2010-12-06T17:04:52Z</time>
      </trkpt>
      <trkpt lat="49.26418" lon="-0.45032">
        <ele>20</ele>
        <time>2010-12-06T17:05:21Z</time>
      </trkpt>
      <trkpt lat="49.26413" lon="-0.45028">
        <ele>20</ele>
        <time>2010-12-06T17:05:28Z</time>
      </trkpt>
      <trkpt lat="49.26415" lon="-0.45022">
        <ele>20</ele>
        <time>2010-12-06T17:05:50Z</time>
      </trkpt>
      <trkpt lat="49.26415" lon="-0.45021">
        <ele>21</ele>
        <time>2010-12-06T17:06:20Z</time>
      </trkpt>
      <trkpt lat="49.26424" lon="-0.45017">
        <ele>21</ele>
        <time>2010-12-06T17:06:43Z</time>
      </trkpt>
      <trkpt lat="49.2643" lon="-0.45018">
        <ele>21</ele>
        <time>2010-12-06T17:06:46Z</time>
      </trkpt>
      <trkpt lat="49.26442" lon="-0.45026">
        <ele>20</ele>
        <time>2010-12-06T17:07:35Z</time>
      </trkpt>
      <trkpt lat="49.26436" lon="-0.45028">
        <ele>21</ele>
        <time>2010-12-06T17:08:46Z</time>
      </trkpt>
      <trkpt lat="49.26431" lon="-0.45025">
        <ele>20</ele>
        <time>2010-12-06T17:09:21Z</time>
      </trkpt>
      <trkpt lat="49.26442" lon="-0.45021">
        <ele>20</ele>
        <time>2010-12-06T17:09:49Z</time>
      </trkpt>
      <trkpt lat="49.26439" lon="-0.45019">
        <ele>20</ele>
        <time>2010-12-06T17:10:50Z</time>
      </trkpt>
      <trkpt lat="49.26449" lon="-0.45016">
        <ele>20</ele>
        <time>2010-12-06T17:11:01Z</time>
      </trkpt>
      <trkpt lat="49.26452" lon="-0.4502">
        <ele>21</ele>
        <time>2010-12-06T17:11:13Z</time>
      </trkpt>
      <trkpt lat="49.26444" lon="-0.45031">
        <ele>20</ele>
        <time>2010-12-06T17:11:20Z</time>
      </trkpt>
      <trkpt lat="49.26439" lon="-0.45031">
        <ele>19</ele>
        <time>2010-12-06T17:11:27Z</time>
      </trkpt>
      <trkpt lat="49.26441" lon="-0.45031">
        <ele>17</ele>
        <time>2010-12-06T17:12:24Z</time>
      </trkpt>
      <trkpt lat="49.26441" lon="-0.45024">
        <ele>17</ele>
        <time>2010-12-06T17:12:56Z</time>
      </trkpt>
      <trkpt lat="49.26439" lon="-0.45017">
        <ele>17</ele>
        <time>2010-12-06T17:12:59Z</time>
      </trkpt>
      <trkpt lat="49.26438" lon="-0.45014">
        <ele>17</ele>
        <time>2010-12-06T17:15:23Z</time>
      </trkpt>
      <trkpt lat="49.26439" lon="-0.45015">
        <ele>17</ele>
        <time>2010-12-06T17:16:23Z</time>
      </trkpt>
      <trkpt lat="49.26437" lon="-0.45019">
        <ele>18</ele>
        <time>2010-12-06T17:17:06Z</time>
      </trkpt>
      <trkpt lat="49.26436" lon="-0.4502">
        <ele>18</ele>
        <time>2010-12-06T17:17:57Z</time>
      </trkpt>
      <trkpt lat="49.2644" lon="-0.45017">
        <ele>18</ele>
        <time>2010-12-06T17:19:48Z</time>
      </trkpt>
      <trkpt lat="49.26451" lon="-0.45016">
        <ele>18</ele>
        <time>2010-12-06T17:19:54Z</time>
      </trkpt>
      <trkpt lat="49.26482" lon="-0.45005">
        <ele>16</ele>
        <time>2010-12-06T17:20:24Z</time>
      </trkpt>
      <trkpt lat="49.26514" lon="-0.44998">
        <ele>14</ele>
        <time>2010-12-06T17:20:44Z</time>
      </trkpt>
      <trkpt lat="49.26516" lon="-0.45001">
        <ele>14</ele>
        <time>2010-12-06T17:21:02Z</time>
      </trkpt>
      <trkpt lat="49.26521" lon="-0.44997">
        <ele>12</ele>
        <time>2010-12-06T17:21:36Z</time>
      </trkpt>
      <trkpt lat="49.26529" lon="-0.44991">
        <ele>12</ele>
        <time>2010-12-06T17:21:48Z</time>
      </trkpt>
      <trkpt lat="49.26548" lon="-0.44996">
        <ele>12</ele>
        <time>2010-12-06T17:22:10Z</time>
      </trkpt>
      <trkpt lat="49.26553" lon="-0.44997">
        <ele>11</ele>
        <time>2010-12-06T17:22:20Z</time>
      </trkpt>
      <trkpt lat="49.26562" lon="-0.45003">
        <ele>11</ele>
        <time>2010-12-06T17:22:29Z</time>
      </trkpt>
      <trkpt lat="49.26566" lon="-0.45028">
        <ele>10</ele>
        <time>2010-12-06T17:22:44Z</time>
      </trkpt>
      <trkpt lat="49.26565" lon="-0.45034">
        <ele>10</ele>
        <time>2010-12-06T17:22:50Z</time>
      </trkpt>
      <trkpt lat="49.26562" lon="-0.45038">
        <ele>10</ele>
        <time>2010-12-06T17:23:07Z</time>
      </trkpt>
      <trkpt lat="49.26565" lon="-0.45045">
        <ele>11</ele>
        <time>2010-12-06T17:23:21Z</time>
      </trkpt>
      <trkpt lat="49.26568" lon="-0.45046">
        <ele>12</ele>
        <time>2010-12-06T17:26:49Z</time>
      </trkpt>
      <trkpt lat="49.26573" lon="-0.45044">
        <ele>12</ele>
        <time>2010-12-06T17:26:54Z</time>
      </trkpt>
      <trkpt lat="49.26571" lon="-0.45043">
        <ele>12</ele>
        <time>2010-12-06T17:27:52Z</time>
      </trkpt>
      <trkpt lat="49.26571" lon="-0.45048">
        <ele>12</ele>
        <time>2010-12-06T17:28:15Z</time>
      </trkpt>
      <trkpt lat="49.26563" lon="-0.45053">
        <ele>12</ele>
        <time>2010-12-06T17:29:08Z</time>
      </trkpt>
      <trkpt lat="49.26561" lon="-0.45052">
        <ele>13</ele>
        <time>2010-12-06T17:29:21Z</time>
      </trkpt>
      <trkpt lat="49.26562" lon="-0.45045">
        <ele>13</ele>
        <time>2010-12-06T17:29:26Z</time>
      </trkpt>
      <trkpt lat="49.2656" lon="-0.4505">
        <ele>14</ele>
        <time>2010-12-06T17:30:55Z</time>
      </trkpt>
      <trkpt lat="49.26566" lon="-0.45051">
        <ele>15</ele>
        <time>2010-12-06T17:31:54Z</time>
      </trkpt>
      <trkpt lat="49.26566" lon="-0.45045">
        <ele>15</ele>
        <time>2010-12-06T17:32:51Z</time>
      </trkpt>
      <trkpt lat="49.26561" lon="-0.45045">
        <ele>15</ele>
        <time>2010-12-06T17:32:55Z</time>
      </trkpt>
      <trkpt lat="49.26561" lon="-0.45044">
        <ele>15</ele>
        <time>2010-12-06T17:34:06Z</time>
      </trkpt>
      <trkpt lat="49.26563" lon="-0.45047">
        <ele>13</ele>
        <time>2010-12-06T17:35:19Z</time>
      </trkpt>
      <trkpt lat="49.2656" lon="-0.45045">
        <ele>14</ele>
        <time>2010-12-06T17:35:53Z</time>
      </trkpt>
      <trkpt lat="49.26556" lon="-0.45042">
        <ele>14</ele>
        <time>2010-12-06T17:36:00Z</time>
      </trkpt>
      <trkpt lat="49.26561" lon="-0.45037">
        <ele>14</ele>
        <time>2010-12-06T17:36:21Z</time>
      </trkpt>
      <trkpt lat="49.26565" lon="-0.45034">
        <ele>15</ele>
        <time>2010-12-06T17:36:46Z</time>
      </trkpt>
      <trkpt lat="49.26569" lon="-0.45046">
        <ele>15</ele>
        <time>2010-12-06T17:37:03Z</time>
      </trkpt>
      <trkpt lat="49.26565" lon="-0.4505">
        <ele>15</ele>
        <time>2010-12-06T17:37:10Z</time>
      </trkpt>
      <trkpt lat="49.26564" lon="-0.45049">
        <ele>15</ele>
        <time>2010-12-06T17:38:18Z</time>
      </trkpt>
      <trkpt lat="49.26564" lon="-0.45044">
        <ele>14</ele>
        <time>2010-12-06T17:40:50Z</time>
      </trkpt>
      <trkpt lat="49.26569" lon="-0.45041">
        <ele>14</ele>
        <time>2010-12-06T17:40:52Z</time>
      </trkpt>
      <trkpt lat="49.26568" lon="-0.45048">
        <ele>13</ele>
        <time>2010-12-06T17:41:14Z</time>
      </trkpt>
      <trkpt lat="49.26564" lon="-0.45051">
        <ele>14</ele>
        <time>2010-12-06T17:42:03Z</time>
      </trkpt>
      <trkpt lat="49.26562" lon="-0.45044">
        <ele>15</ele>
        <time>2010-12-06T17:42:42Z</time>
      </trkpt>
      <trkpt lat="49.2657" lon="-0.45052">
        <ele>15</ele>
        <time>2010-12-06T17:43:04Z</time>
      </trkpt>
      <trkpt lat="49.26574" lon="-0.45055">
        <ele>15</ele>
        <time>2010-12-06T17:43:13Z</time>
      </trkpt>
      <trkpt lat="49.26577" lon="-0.45051">
        <ele>16</ele>
        <time>2010-12-06T17:43:33Z</time>
      </trkpt>
      <trkpt lat="49.26569" lon="-0.45044">
        <ele>16</ele>
        <time>2010-12-06T17:43:51Z</time>
      </trkpt>
      <trkpt lat="49.26569" lon="-0.45039">
        <ele>16</ele>
        <time>2010-12-06T17:45:15Z</time>
      </trkpt>
      <trkpt lat="49.26574" lon="-0.45037">
        <ele>16</ele>
        <time>2010-12-06T17:45:24Z</time>
      </trkpt>
      <trkpt lat="49.26568" lon="-0.45041">
        <ele>15</ele>
        <time>2010-12-06T17:46:06Z</time>
      </trkpt>
      <trkpt lat="49.26567" lon="-0.45034">
        <ele>15</ele>
        <time>2010-12-06T17:46:10Z</time>
      </trkpt>
      <trkpt lat="49.26565" lon="-0.45027">
        <ele>14</ele>
        <time>2010-12-06T17:46:26Z</time>
      </trkpt>
      <trkpt lat="49.26567" lon="-0.45016">
        <ele>13</ele>
        <time>2010-12-06T17:46:38Z</time>
      </trkpt>
      <trkpt lat="49.26569" lon="-0.44996">
        <ele>12</ele>
        <time>2010-12-06T17:46:52Z</time>
      </trkpt>
      <trkpt lat="49.26579" lon="-0.44997">
        <ele>12</ele>
        <time>2010-12-06T17:47:03Z</time>
      </trkpt>
      <trkpt lat="49.26592" lon="-0.44995">
        <ele>12</ele>
        <time>2010-12-06T17:47:21Z</time>
      </trkpt>
      <trkpt lat="49.26601" lon="-0.44999">
        <ele>12</ele>
        <time>2010-12-06T17:47:38Z</time>
      </trkpt>
      <trkpt lat="49.26611" lon="-0.44994">
        <ele>12</ele>
        <time>2010-12-06T17:47:46Z</time>
      </trkpt>
      <trkpt lat="49.26619" lon="-0.44991">
        <ele>11</ele>
        <time>2010-12-06T17:48:28Z</time>
      </trkpt>
      <trkpt lat="49.2662" lon="-0.44984">
        <ele>10</ele>
        <time>2010-12-06T17:48:35Z</time>
      </trkpt>
      <trkpt lat="49.26626" lon="-0.4498">
        <ele>9</ele>
        <time>2010-12-06T17:49:12Z</time>
      </trkpt>
      <trkpt lat="49.2663" lon="-0.44967">
        <ele>9</ele>
        <time>2010-12-06T17:49:24Z</time>
      </trkpt>
      <trkpt lat="49.2663" lon="-0.44968">
        <ele>10</ele>
        <time>2010-12-06T17:52:29Z</time>
      </trkpt>
      <trkpt lat="49.26625" lon="-0.44955">
        <ele>10</ele>
        <time>2010-12-06T17:52:46Z</time>
      </trkpt>
      <trkpt lat="49.26629" lon="-0.44959">
        <ele>9</ele>
        <time>2010-12-06T17:53:10Z</time>
      </trkpt>
      <trkpt lat="49.26629" lon="-0.44967">
        <ele>9</ele>
        <time>2010-12-06T17:53:26Z</time>
      </trkpt>
      <trkpt lat="49.26628" lon="-0.4497">
        <ele>10</ele>
        <time>2010-12-06T17:54:29Z</time>
      </trkpt>
      <trkpt lat="49.26624" lon="-0.44966">
        <ele>10</ele>
        <time>2010-12-06T17:54:35Z</time>
      </trkpt>
      <trkpt lat="49.26627" lon="-0.44961">
        <ele>10</ele>
        <time>2010-12-06T17:55:29Z</time>
      </trkpt>
      <trkpt lat="49.26631" lon="-0.44965">
        <ele>10</ele>
        <time>2010-12-06T17:56:21Z</time>
      </trkpt>
      <trkpt lat="49.26628" lon="-0.44975">
        <ele>10</ele>
        <time>2010-12-06T17:57:16Z</time>
      </trkpt>
      <trkpt lat="49.26632" lon="-0.4498">
        <ele>10</ele>
        <time>2010-12-06T17:57:17Z</time>
      </trkpt>
      <trkpt lat="49.2663" lon="-0.44977">
        <ele>11</ele>
        <time>2010-12-06T17:58:18Z</time>
      </trkpt>
      <trkpt lat="49.26628" lon="-0.44971">
        <ele>11</ele>
        <time>2010-12-06T17:58:24Z</time>
      </trkpt>
      <trkpt lat="49.26626" lon="-0.44965">
        <ele>11</ele>
        <time>2010-12-06T17:58:51Z</time>
      </trkpt>
      <trkpt lat="49.26623" lon="-0.44971">
        <ele>11</ele>
        <time>2010-12-06T17:58:55Z</time>
      </trkpt>
      <trkpt lat="49.26628" lon="-0.44985">
        <ele>11</ele>
        <time>2010-12-06T17:59:08Z</time>
      </trkpt>
      <trkpt lat="49.26633" lon="-0.44975">
        <ele>12</ele>
        <time>2010-12-06T17:59:44Z</time>
      </trkpt>
      <trkpt lat="49.26634" lon="-0.44975">
        <ele>12</ele>
        <time>2010-12-06T18:00:05Z</time>
      </trkpt>
      <trkpt lat="49.26627" lon="-0.44984">
        <ele>12</ele>
        <time>2010-12-06T18:00:13Z</time>
      </trkpt>
      <trkpt lat="49.2663" lon="-0.44988">
        <ele>12</ele>
        <time>2010-12-06T18:00:42Z</time>
      </trkpt>
      <trkpt lat="49.26632" lon="-0.4498">
        <ele>14</ele>
        <time>2010-12-06T18:00:56Z</time>
      </trkpt>
      <trkpt lat="49.26626" lon="-0.44971">
        <ele>14</ele>
        <time>2010-12-06T18:01:06Z</time>
      </trkpt>
      <trkpt lat="49.26624" lon="-0.44959">
        <ele>20</ele>
        <time>2010-12-06T18:03:05Z</time>
      </trkpt>
      <trkpt lat="49.26629" lon="-0.44963">
        <ele>20</ele>
        <time>2010-12-06T18:03:09Z</time>
      </trkpt>
      <trkpt lat="49.26628" lon="-0.44969">
        <ele>17</ele>
        <time>2010-12-06T18:04:19Z</time>
      </trkpt>
      <trkpt lat="49.26629" lon="-0.44976">
        <ele>17</ele>
        <time>2010-12-06T18:04:35Z</time>
      </trkpt>
      <trkpt lat="49.26634" lon="-0.44976">
        <ele>18</ele>
        <time>2010-12-06T18:05:01Z</time>
      </trkpt>
      <trkpt lat="49.26634" lon="-0.44969">
        <ele>18</ele>
        <time>2010-12-06T18:05:24Z</time>
      </trkpt>
      <trkpt lat="49.2663" lon="-0.44964">
        <ele>17</ele>
        <time>2010-12-06T18:06:24Z</time>
      </trkpt>
      <trkpt lat="49.26633" lon="-0.44969">
        <ele>17</ele>
        <time>2010-12-06T18:07:07Z</time>
      </trkpt>
      <trkpt lat="49.26633" lon="-0.44972">
        <ele>16</ele>
        <time>2010-12-06T18:07:36Z</time>
      </trkpt>
      <trkpt lat="49.26629" lon="-0.44976">
        <ele>16</ele>
        <time>2010-12-06T18:07:48Z</time>
      </trkpt>
      <trkpt lat="49.2662" lon="-0.44969">
        <ele>17</ele>
        <time>2010-12-06T18:08:49Z</time>
      </trkpt>
      <trkpt lat="49.26621" lon="-0.44967">
        <ele>17</ele>
        <time>2010-12-06T18:09:19Z</time>
      </trkpt>
      <trkpt lat="49.26626" lon="-0.44968">
        <ele>17</ele>
        <time>2010-12-06T18:09:29Z</time>
      </trkpt>
      <trkpt lat="49.2663" lon="-0.44964">
        <ele>16</ele>
        <time>2010-12-06T18:09:59Z</time>
      </trkpt>
      <trkpt lat="49.26633" lon="-0.44971">
        <ele>16</ele>
        <time>2010-12-06T18:10:21Z</time>
      </trkpt>
      <trkpt lat="49.26635" lon="-0.44977">
        <ele>16</ele>
        <time>2010-12-06T18:10:23Z</time>
      </trkpt>
      <trkpt lat="49.2664" lon="-0.44974">
        <ele>16</ele>
        <time>2010-12-06T18:10:39Z</time>
      </trkpt>
      <trkpt lat="49.26647" lon="-0.44963">
        <ele>16</ele>
        <time>2010-12-06T18:10:48Z</time>
      </trkpt>
      <trkpt lat="49.26649" lon="-0.44969">
        <ele>16</ele>
        <time>2010-12-06T18:11:13Z</time>
      </trkpt>
      <trkpt lat="49.2664" lon="-0.44972">
        <ele>16</ele>
        <time>2010-12-06T18:11:22Z</time>
      </trkpt>
      <trkpt lat="49.26639" lon="-0.44972">
        <ele>15</ele>
        <time>2010-12-06T18:12:12Z</time>
      </trkpt>
      <trkpt lat="49.26634" lon="-0.44972">
        <ele>15</ele>
        <time>2010-12-06T18:12:21Z</time>
      </trkpt>
      <trkpt lat="49.26635" lon="-0.44967">
        <ele>15</ele>
        <time>2010-12-06T18:13:10Z</time>
      </trkpt>
      <trkpt lat="49.2663" lon="-0.44965">
        <ele>15</ele>
        <time>2010-12-06T18:13:33Z</time>
      </trkpt>
      <trkpt lat="49.26634" lon="-0.44959">
        <ele>15</ele>
        <time>2010-12-06T18:13:49Z</time>
      </trkpt>
      <trkpt lat="49.26636" lon="-0.44965">
        <ele>15</ele>
        <time>2010-12-06T18:14:16Z</time>
      </trkpt>
      <trkpt lat="49.26635" lon="-0.44973">
        <ele>15</ele>
        <time>2010-12-06T18:14:22Z</time>
      </trkpt>
      <trkpt lat="49.26637" lon="-0.44974">
        <ele>16</ele>
        <time>2010-12-06T18:14:47Z</time>
      </trkpt>
      <trkpt lat="49.26641" lon="-0.44967">
        <ele>16</ele>
        <time>2010-12-06T18:14:52Z</time>
      </trkpt>
      <trkpt lat="49.26643" lon="-0.44961">
        <ele>17</ele>
        <time>2010-12-06T18:15:01Z</time>
      </trkpt>
      <trkpt lat="49.26639" lon="-0.44957">
        <ele>18</ele>
        <time>2010-12-06T18:16:27Z</time>
      </trkpt>
      <trkpt lat="49.26642" lon="-0.44943">
        <ele>19</ele>
        <time>2010-12-06T18:16:43Z</time>
      </trkpt>
      <trkpt lat="49.26644" lon="-0.44936">
        <ele>20</ele>
        <time>2010-12-06T18:17:00Z</time>
      </trkpt>
      <trkpt lat="49.26644" lon="-0.44929">
        <ele>20</ele>
        <time>2010-12-06T18:17:03Z</time>
      </trkpt>
    </trkseg>
  </trk>
</gpx>